createdAt,value
2018-02-04T00:01:33.821Z,7.90
2018-02-04T00:04:01.340Z,8.93
2018-02-04T00:06:28.821Z,8.33
2018-02-04T00:08:56.297Z,9.47
2018-02-04T00:11:23.779Z,8.80
2018-02-04T00:13:52.029Z,9.68
2018-02-04T00:16:20.434Z,10.07
2018-02-04T00:18:48.169Z,8.93
2018-02-04T00:21:15.621Z,8.73
2018-02-04T00:23:43.106Z,8.73
2018-02-04T00:26:10.590Z,8.30
2018-02-04T00:28:38.296Z,9.43
2018-02-04T00:31:05.780Z,8.98
2018-02-04T00:33:33.284Z,9.00
2018-02-04T00:36:05.001Z,8.10
2018-02-04T00:38:32.450Z,8.40
2018-02-04T00:41:00.314Z,9.00
2018-02-04T00:43:27.813Z,10.07
2018-02-04T00:45:55.442Z,8.70
2018-02-04T00:48:22.890Z,10.80
2018-02-04T00:50:50.350Z,9.53
2018-02-04T00:53:18.459Z,8.77
2018-02-04T00:55:45.924Z,17.03
2018-02-04T00:58:13.425Z,9.80
2018-02-04T01:00:41.503Z,9.60
2018-02-04T01:03:08.963Z,9.43
2018-02-04T01:05:36.511Z,9.40
2018-02-04T01:08:03.957Z,10.20
2018-02-04T01:10:31.887Z,9.65
2018-02-04T01:12:59.985Z,11.30
2018-02-04T01:15:27.464Z,11.32
2018-02-04T01:17:54.922Z,11.40
2018-02-04T01:20:22.360Z,10.03
2018-02-04T01:22:49.836Z,11.03
2018-02-04T01:25:17.305Z,10.80
2018-02-04T01:27:44.803Z,10.70
2018-02-04T01:30:12.572Z,11.18
2018-02-04T01:32:40.564Z,10.57
2018-02-04T01:35:08.021Z,10.93
2018-02-04T01:37:35.496Z,12.70
2018-02-04T01:40:02.998Z,11.35
2018-02-04T01:42:31.428Z,10.73
2018-02-04T01:44:59.600Z,10.50
2018-02-04T01:47:27.124Z,11.52
2018-02-04T01:49:54.616Z,11.80
2018-02-04T01:52:22.064Z,12.30
2018-02-04T01:54:49.520Z,11.47
2018-02-04T01:57:17.060Z,12.20
2018-02-04T01:59:44.539Z,12.47
2018-02-04T02:02:12.017Z,11.93
2018-02-04T02:04:39.497Z,11.17
2018-02-04T02:07:15.020Z,13.15
2018-02-04T02:09:42.480Z,11.73
2018-02-04T02:12:09.977Z,12.13
2018-02-04T02:14:37.477Z,11.07
2018-02-04T02:17:04.941Z,11.63
2018-02-04T02:19:34.167Z,11.77
2018-02-04T02:22:01.622Z,11.27
2018-02-04T02:24:29.249Z,9.90
2018-02-04T02:26:58.587Z,11.88
2018-02-04T02:29:26.800Z,11.33
2018-02-04T02:31:54.290Z,12.20
2018-02-04T02:34:22.689Z,9.85
2018-02-04T02:36:50.136Z,11.63
2018-02-04T02:39:21.831Z,10.83
2018-02-04T02:41:49.301Z,12.10
2018-02-04T02:44:17.017Z,14.20
2018-02-04T02:46:44.790Z,12.93
2018-02-04T02:49:12.271Z,11.30
2018-02-04T02:51:39.750Z,11.43
2018-02-04T02:54:07.257Z,12.18
2018-02-04T02:56:34.905Z,10.45
2018-02-04T02:59:02.379Z,11.68
2018-02-04T03:01:29.817Z,11.80
2018-02-04T03:03:57.318Z,11.43
2018-02-04T03:06:24.792Z,10.75
2018-02-04T03:08:52.273Z,10.60
2018-02-04T03:11:20.344Z,9.88
2018-02-04T03:13:47.823Z,10.57
2018-02-04T03:16:15.280Z,11.40
2018-02-04T03:18:42.781Z,12.95
2018-02-04T03:21:11.027Z,11.75
2018-02-04T03:23:38.477Z,11.87
2018-02-04T03:26:05.978Z,12.57
2018-02-04T03:28:34.380Z,12.60
2018-02-04T03:31:01.899Z,11.00
2018-02-04T03:33:30.107Z,12.20
2018-02-04T03:35:59.255Z,11.83
2018-02-04T03:38:30.220Z,12.90
2018-02-04T03:40:57.848Z,11.13
2018-02-04T03:43:25.491Z,12.77
2018-02-04T03:45:54.483Z,12.87
2018-02-04T03:48:21.932Z,11.00
2018-02-04T03:50:49.412Z,11.70
2018-02-04T03:53:16.883Z,13.38
2018-02-04T03:55:44.474Z,10.43
2018-02-04T03:58:11.941Z,10.87
2018-02-04T04:00:39.372Z,13.30
2018-02-04T04:03:08.784Z,12.80
2018-02-04T04:05:36.304Z,12.77
2018-02-04T04:08:03.751Z,12.40
2018-02-04T04:10:32.197Z,12.77
2018-02-04T04:12:59.630Z,12.90
2018-02-04T04:15:27.124Z,14.27
2018-02-04T04:17:54.581Z,12.97
2018-02-04T04:20:22.028Z,15.57
2018-02-04T04:22:49.506Z,14.77
2018-02-04T04:25:16.999Z,12.90
2018-02-04T04:27:46.173Z,13.27
2018-02-04T04:30:13.652Z,11.70
2018-02-04T04:32:41.428Z,12.30
2018-02-04T04:35:08.976Z,12.87
2018-02-04T04:37:36.480Z,13.27
2018-02-04T04:40:03.937Z,13.40
2018-02-04T04:42:31.544Z,13.00
2018-02-04T04:44:59.872Z,12.93
2018-02-04T04:47:27.328Z,13.33
2018-02-04T04:49:54.844Z,12.33
2018-02-04T04:52:22.300Z,12.67
2018-02-04T04:55:02.646Z,11.55
2018-02-04T04:57:30.922Z,13.07
2018-02-04T04:59:58.404Z,12.50
2018-02-04T05:02:25.869Z,13.60
2018-02-04T05:04:53.333Z,13.47
2018-02-04T05:07:20.870Z,13.80
2018-02-04T05:09:52.228Z,13.30
2018-02-04T05:12:20.331Z,12.80
2018-02-04T05:14:47.815Z,12.80
2018-02-04T05:17:15.318Z,13.70
2018-02-04T05:19:42.753Z,12.63
2018-02-04T05:22:10.235Z,13.75
2018-02-04T05:24:37.712Z,13.95
2018-02-04T05:27:05.179Z,13.67
2018-02-04T05:29:33.090Z,14.37
2018-02-04T05:32:00.579Z,14.87
2018-02-04T05:34:28.946Z,13.50
2018-02-04T05:36:56.432Z,14.20
2018-02-04T05:39:23.894Z,13.27
2018-02-04T05:41:54.523Z,13.48
2018-02-04T05:44:21.987Z,14.87
2018-02-04T05:46:49.432Z,12.93
2018-02-04T05:49:16.899Z,13.20
2018-02-04T05:51:44.458Z,14.52
2018-02-04T05:54:12.898Z,12.80
2018-02-04T05:56:44.056Z,14.40
2018-02-04T05:59:11.513Z,12.70
2018-02-04T06:01:39.004Z,12.67
2018-02-04T06:04:06.473Z,13.20
2018-02-04T06:06:34.009Z,13.43
2018-02-04T06:09:02.395Z,12.70
2018-02-04T06:11:29.864Z,13.13
2018-02-04T06:13:57.363Z,12.20
2018-02-04T06:16:24.867Z,14.80
2018-02-04T06:18:52.324Z,14.98
2018-02-04T06:21:19.829Z,14.30
2018-02-04T06:23:47.313Z,13.93
2018-02-04T06:26:15.704Z,13.48
2018-02-04T06:28:43.166Z,14.00
2018-02-04T06:31:10.641Z,11.30
2018-02-04T06:33:38.290Z,12.47
2018-02-04T06:36:05.776Z,13.07
2018-02-04T06:38:33.268Z,15.83
2018-02-04T06:41:00.720Z,13.73
2018-02-04T06:43:28.177Z,14.07
2018-02-04T06:45:56.450Z,14.85
2018-02-04T06:48:24.327Z,14.95
2018-02-04T06:50:51.816Z,17.57
2018-02-04T06:53:19.344Z,17.63
2018-02-04T06:55:46.844Z,15.33
2018-02-04T06:58:14.315Z,14.75
2018-02-04T07:00:41.828Z,14.83
2018-02-04T07:03:10.104Z,15.20
2018-02-04T07:05:37.738Z,14.20
2018-02-04T07:08:05.204Z,14.52
2018-02-04T07:10:32.651Z,13.93
2018-02-04T07:13:00.137Z,14.80
2018-02-04T07:15:27.712Z,16.00
2018-02-04T07:17:55.329Z,15.23
2018-02-04T07:20:23.329Z,13.00
2018-02-04T07:22:50.906Z,13.75
2018-02-04T07:25:18.402Z,14.60
2018-02-04T07:27:45.924Z,15.68
2018-02-04T07:30:13.424Z,14.07
2018-02-04T07:32:45.325Z,14.90
2018-02-04T07:35:13.299Z,14.40
2018-02-04T07:37:46.691Z,14.00
2018-02-04T07:40:17.445Z,14.53
2018-02-04T07:42:48.328Z,14.55
2018-02-04T07:45:15.828Z,15.30
2018-02-04T07:47:43.272Z,12.80
2018-02-04T07:50:10.760Z,15.80
2018-02-04T07:52:38.616Z,15.63
2018-02-04T07:55:06.887Z,15.70
2018-02-04T07:57:34.341Z,14.00
2018-02-04T08:00:01.886Z,12.97
2018-02-04T08:02:29.309Z,15.00
2018-02-04T08:04:56.790Z,15.55
2018-02-04T08:07:25.957Z,14.80
2018-02-04T08:09:53.458Z,16.00
2018-02-04T08:12:20.955Z,13.33
2018-02-04T08:14:48.418Z,15.27
2018-02-04T08:17:16.048Z,14.80
2018-02-04T08:19:43.532Z,14.50
2018-02-04T08:22:10.989Z,16.27
2018-02-04T08:24:38.513Z,14.07
2018-02-04T08:27:05.953Z,16.27
2018-02-04T08:29:34.336Z,13.97
2018-02-04T08:32:01.819Z,15.60
2018-02-04T08:34:29.317Z,16.23
2018-02-04T08:36:56.789Z,14.27
2018-02-04T08:39:24.270Z,14.15
2018-02-04T08:41:51.744Z,17.00
2018-02-04T08:44:19.460Z,12.60
2018-02-04T08:46:49.361Z,13.00
2018-02-04T08:49:16.849Z,14.37
2018-02-04T08:51:44.489Z,15.10
2018-02-04T08:54:12.773Z,15.70
2018-02-04T08:56:40.249Z,14.63
2018-02-04T08:59:19.030Z,14.35
2018-02-04T09:01:46.487Z,13.70
2018-02-04T09:04:13.981Z,13.17
2018-02-04T09:06:42.232Z,15.00
2018-02-04T09:09:09.780Z,15.10
2018-02-04T09:11:38.972Z,15.23
2018-02-04T09:14:06.426Z,14.23
2018-02-04T09:16:33.926Z,14.07
2018-02-04T09:19:01.918Z,13.17
2018-02-04T09:21:29.357Z,14.82
2018-02-04T09:23:58.546Z,13.07
2018-02-04T09:26:26.010Z,12.90
2018-02-04T09:28:54.283Z,11.60
2018-02-04T09:31:22.173Z,12.75
2018-02-04T09:33:49.668Z,19.83
2018-02-04T09:36:17.128Z,13.43
2018-02-04T09:38:44.651Z,12.40
2018-02-04T09:41:12.197Z,12.13
2018-02-04T09:43:40.611Z,13.30
2018-02-04T09:46:08.070Z,16.10
2018-02-04T09:48:36.152Z,15.48
2018-02-04T09:51:03.652Z,13.77
2018-02-04T09:53:32.075Z,12.10
2018-02-04T09:56:01.265Z,14.17
2018-02-04T09:58:28.752Z,13.40
2018-02-04T10:00:56.206Z,14.35
2018-02-04T10:03:23.666Z,12.37
2018-02-04T10:05:51.140Z,13.40
2018-02-04T10:08:18.712Z,13.40
2018-02-04T10:10:46.932Z,12.77
2018-02-04T10:13:14.764Z,13.25
2018-02-04T10:15:42.996Z,13.23
2018-02-04T10:18:10.500Z,14.40
2018-02-04T10:20:38.034Z,12.20
2018-02-04T10:23:05.512Z,11.90
2018-02-04T10:25:33.636Z,11.15
2018-02-04T10:28:01.106Z,13.07
2018-02-04T10:30:28.557Z,12.57
2018-02-04T10:32:56.432Z,16.33
2018-02-04T10:35:23.972Z,12.60
2018-02-04T10:37:51.440Z,16.42
2018-02-04T10:40:18.885Z,15.97
2018-02-04T10:42:47.521Z,13.27
2018-02-04T10:45:14.974Z,14.10
2018-02-04T10:47:42.468Z,14.40
2018-02-04T10:50:09.941Z,14.13
2018-02-04T10:52:37.421Z,14.80
2018-02-04T10:55:04.889Z,13.73
2018-02-04T10:57:32.395Z,16.67
2018-02-04T10:59:59.903Z,14.93
2018-02-04T11:02:27.406Z,16.08
2018-02-04T11:04:55.825Z,13.05
2018-02-04T11:07:23.297Z,14.10
2018-02-04T11:09:50.757Z,15.10
2018-02-04T11:12:18.212Z,13.07
2018-02-04T11:14:47.172Z,14.70
2018-02-04T11:17:14.768Z,15.03
2018-02-04T11:19:43.015Z,13.27
2018-02-04T11:22:10.501Z,14.20
2018-02-04T11:24:38.023Z,13.48
2018-02-04T11:27:05.596Z,13.27
2018-02-04T11:29:33.049Z,14.40
2018-02-04T11:32:00.603Z,14.20
2018-02-04T11:34:28.854Z,15.70
2018-02-04T11:36:56.358Z,13.60
2018-02-04T11:39:24.641Z,12.70
2018-02-04T11:41:52.149Z,12.77
2018-02-04T11:44:19.771Z,13.67
2018-02-04T11:46:49.668Z,12.88
2018-02-04T11:49:17.340Z,13.20
2018-02-04T11:51:45.560Z,13.68
2018-02-04T11:54:13.012Z,14.38
2018-02-04T11:56:40.476Z,12.40
2018-02-04T11:59:07.939Z,12.93
2018-02-04T12:01:39.008Z,13.90
2018-02-04T12:04:06.468Z,14.00
2018-02-04T12:06:33.948Z,14.07
2018-02-04T12:09:01.406Z,14.75
2018-02-04T12:11:28.864Z,13.07
2018-02-04T12:13:57.306Z,13.40
2018-02-04T12:16:24.765Z,12.10
2018-02-04T12:18:52.277Z,11.87
2018-02-04T12:21:19.780Z,12.77
2018-02-04T12:23:47.236Z,12.63
2018-02-04T12:26:15.637Z,11.26
2018-02-04T12:28:43.112Z,10.80
2018-02-04T12:31:11.324Z,11.20
2018-02-04T12:33:38.833Z,10.93
2018-02-04T12:36:06.283Z,13.03
2018-02-04T12:38:35.185Z,12.20
2018-02-04T12:41:02.721Z,10.97
2018-02-04T12:43:30.167Z,10.15
2018-02-04T12:45:57.652Z,10.88
2018-02-04T12:48:25.099Z,11.05
2018-02-04T12:50:52.601Z,11.13
2018-02-04T12:53:20.101Z,10.97
2018-02-04T12:55:47.548Z,10.23
2018-02-04T12:58:15.017Z,9.93
2018-02-04T13:00:43.416Z,10.77
2018-02-04T13:03:11.138Z,10.87
2018-02-04T13:05:38.616Z,11.05
2018-02-04T13:08:06.069Z,9.53
2018-02-04T13:10:33.540Z,10.67
2018-02-04T13:13:01.009Z,8.50
2018-02-04T13:15:29.229Z,8.53
2018-02-04T13:18:00.621Z,11.43
2018-02-04T13:20:28.879Z,9.83
2018-02-04T13:22:56.678Z,9.73
2018-02-04T13:25:24.221Z,9.97
2018-02-04T13:27:51.957Z,9.90
2018-02-04T13:30:19.437Z,10.85
2018-02-04T13:32:46.891Z,10.90
2018-02-04T13:35:14.353Z,9.63
2018-02-04T13:37:41.842Z,9.37
2018-02-04T13:40:09.286Z,10.20
2018-02-04T13:42:36.753Z,12.27
2018-02-04T13:45:04.189Z,9.77
2018-02-04T13:47:31.716Z,11.10
2018-02-04T13:49:59.316Z,10.10
2018-02-04T13:52:26.918Z,10.30
2018-02-04T13:54:55.051Z,10.07
2018-02-04T13:57:22.506Z,9.82
2018-02-04T13:59:50.040Z,8.93
2018-02-04T14:02:17.481Z,8.53
2018-02-04T14:04:44.932Z,9.30
2018-02-04T14:07:12.488Z,9.60
2018-02-04T14:09:39.973Z,7.10
2018-02-04T14:12:08.559Z,9.00
2018-02-04T14:14:36.029Z,10.50
2018-02-04T14:17:03.513Z,12.03
2018-02-04T14:19:30.965Z,8.60
2018-02-04T14:21:58.487Z,8.15
2018-02-04T14:24:25.940Z,7.50
2018-02-04T14:26:53.401Z,9.03
2018-02-04T14:29:20.884Z,9.65
2018-02-04T14:31:48.628Z,8.20
2018-02-04T14:34:20.553Z,8.40
2018-02-04T14:36:48.022Z,8.00
2018-02-04T14:39:15.488Z,10.07
2018-02-04T14:41:43.092Z,13.10
2018-02-04T14:44:10.526Z,9.63
2018-02-04T14:46:37.982Z,7.05
2018-02-04T14:49:08.152Z,10.15
2018-02-04T14:51:37.208Z,10.27
2018-02-04T14:54:04.689Z,12.60
2018-02-04T14:56:32.309Z,14.00
2018-02-04T14:58:59.887Z,13.37
2018-02-04T15:01:27.327Z,11.07
2018-02-04T15:03:57.225Z,12.45
2018-02-04T15:06:26.417Z,10.53
2018-02-04T15:08:53.885Z,12.23
2018-02-04T15:11:21.346Z,11.95
2018-02-04T15:13:48.826Z,7.93
2018-02-04T15:16:17.069Z,12.25
2018-02-04T15:18:44.561Z,14.35
2018-02-04T15:21:12.040Z,11.30
2018-02-04T15:23:41.170Z,11.70
2018-02-04T15:26:08.964Z,13.37
2018-02-04T15:28:36.498Z,12.50
2018-02-04T15:31:04.585Z,13.30
2018-02-04T15:33:32.073Z,12.13
2018-02-04T15:36:03.761Z,9.90
2018-02-04T15:38:31.444Z,11.00
2018-02-04T15:41:00.420Z,11.93
2018-02-04T15:43:27.886Z,13.35
2018-02-04T15:45:55.389Z,13.02
2018-02-04T15:48:22.943Z,13.55
2018-02-04T15:51:00.567Z,14.50
2018-02-04T15:53:28.785Z,15.90
2018-02-04T15:55:56.337Z,14.20
2018-02-04T15:58:23.796Z,18.50
2018-02-04T16:00:51.289Z,16.07
2018-02-04T16:03:18.790Z,12.97
2018-02-04T16:05:46.340Z,13.48
2018-02-04T16:08:14.389Z,10.93
2018-02-04T16:10:41.864Z,13.68
2018-02-04T16:13:09.335Z,12.40
2018-02-04T16:15:36.824Z,12.50
2018-02-04T16:18:04.316Z,14.50
2018-02-04T16:20:31.825Z,13.38
2018-02-04T16:22:59.278Z,12.40
2018-02-04T16:25:26.735Z,12.98
2018-02-04T16:27:54.290Z,13.57
2018-02-04T16:30:23.466Z,14.38
2018-02-04T16:32:50.912Z,15.97
2018-02-04T16:35:18.429Z,14.53
2018-02-04T16:37:45.885Z,15.20
2018-02-04T16:40:13.376Z,13.30
2018-02-04T16:42:41.768Z,14.37
2018-02-04T16:45:10.042Z,14.73
2018-02-04T16:47:37.547Z,14.48
2018-02-04T16:52:42.560Z,14.45
2018-02-04T16:55:10.006Z,12.57
2018-02-04T16:57:37.511Z,14.87
2018-02-04T17:00:04.959Z,14.70
2018-02-04T17:02:32.520Z,14.73
2018-02-04T17:04:59.982Z,13.30
2018-02-04T17:07:27.581Z,13.57
2018-02-04T17:09:55.057Z,14.80
2018-02-04T17:12:22.568Z,12.20
2018-02-04T17:14:50.037Z,12.77
2018-02-04T17:17:17.480Z,14.90
2018-02-04T17:19:45.733Z,13.30
2018-02-04T17:22:13.183Z,13.30
2018-02-04T17:24:40.698Z,15.17
2018-02-04T17:27:08.156Z,13.07
2018-02-04T17:29:35.608Z,12.83
2018-02-04T17:32:03.159Z,14.18
2018-02-04T17:34:30.742Z,14.23
2018-02-04T17:36:59.881Z,13.10
2018-02-04T17:39:28.885Z,12.57
2018-02-04T17:41:56.431Z,13.60
2018-02-04T17:44:24.565Z,11.00
2018-02-04T17:46:52.267Z,12.27
2018-02-04T17:49:19.827Z,11.40
2018-02-04T17:51:47.340Z,12.77
2018-02-04T17:54:14.934Z,11.30
2018-02-04T17:56:43.321Z,12.15
2018-02-04T17:59:10.994Z,10.98
2018-02-04T18:01:38.518Z,11.47
2018-02-04T18:04:06.748Z,9.50
2018-02-04T18:06:34.219Z,11.17
2018-02-04T18:09:02.763Z,10.75
2018-02-04T18:11:30.320Z,10.90
2018-02-04T18:13:58.802Z,9.32
2018-02-04T18:16:26.445Z,10.45
2018-02-04T18:18:54.749Z,10.20
2018-02-04T18:21:22.266Z,10.10
2018-02-04T18:23:53.507Z,8.93
2018-02-04T18:26:20.949Z,11.27
2018-02-04T18:28:48.426Z,9.48
2018-02-04T18:31:17.582Z,8.40
2018-02-04T18:33:45.068Z,10.17
2018-02-04T18:36:13.285Z,11.32
2018-02-04T18:38:46.535Z,10.98
2018-02-04T18:41:14.236Z,10.50
2018-02-04T18:43:42.044Z,10.32
2018-02-04T18:46:10.640Z,11.53
2018-02-04T18:48:38.120Z,11.60
2018-02-04T18:51:05.587Z,12.20
2018-02-04T18:53:37.824Z,11.25
2018-02-04T18:56:05.261Z,12.87
2018-02-04T18:58:32.709Z,18.50
2018-02-04T19:01:00.262Z,19.58
2018-02-04T19:03:27.774Z,16.73
2018-02-04T19:05:55.431Z,14.00
2018-02-04T19:08:22.967Z,12.53
2018-02-04T19:10:51.165Z,14.10
2018-02-04T19:13:19.101Z,14.10
2018-02-04T19:15:47.814Z,12.83
2018-02-04T19:18:16.093Z,14.20
2018-02-04T19:20:43.631Z,14.23
2018-02-04T19:23:13.829Z,14.24
2018-02-04T19:25:41.366Z,13.83
2018-02-04T19:28:08.976Z,13.82
2018-02-04T19:30:36.555Z,13.13
2018-02-04T19:33:04.037Z,13.57
2018-02-04T19:35:33.109Z,13.97
2018-02-04T19:38:01.315Z,13.80
2018-02-04T19:40:39.815Z,12.83
2018-02-04T19:43:08.682Z,13.10
2018-02-04T19:45:38.192Z,12.43
2018-02-04T19:48:05.684Z,12.67
2018-02-04T19:50:33.248Z,13.30
2018-02-04T19:53:01.797Z,10.70
2018-02-04T19:55:33.714Z,11.25
2018-02-04T19:58:02.091Z,11.10
2018-02-04T20:00:30.770Z,10.68
2018-02-04T20:02:58.372Z,12.13
2018-02-04T20:05:27.299Z,11.48
2018-02-04T20:07:55.185Z,9.85
2018-02-04T20:10:31.220Z,11.45
2018-02-04T20:12:58.675Z,11.20
2018-02-04T20:15:26.776Z,11.63
2018-02-04T20:17:54.220Z,9.83
2018-02-04T20:20:22.649Z,10.55
2018-02-04T20:22:50.154Z,14.23
2018-02-04T20:25:17.663Z,12.17
2018-02-04T20:27:45.246Z,12.70
2018-02-04T20:30:12.814Z,10.48
2018-02-04T20:32:53.337Z,11.28
2018-02-04T20:35:21.559Z,11.20
2018-02-04T20:37:49.616Z,11.47
2018-02-04T20:40:30.926Z,12.00
2018-02-04T20:42:58.977Z,11.93
2018-02-04T20:45:30.261Z,11.73
2018-02-04T20:48:01.592Z,13.05
2018-02-04T20:50:29.039Z,12.82
2018-02-04T20:52:56.559Z,12.60
2018-02-04T20:55:25.709Z,13.67
2018-02-04T20:57:53.328Z,13.23
2018-02-04T21:00:21.241Z,12.30
2018-02-04T21:02:48.780Z,13.25
2018-02-04T21:05:16.772Z,10.80
2018-02-04T21:07:44.240Z,12.00
2018-02-04T21:10:12.250Z,11.30
2018-02-04T21:12:39.777Z,12.28
2018-02-04T21:15:13.813Z,9.49
2018-02-04T21:17:42.066Z,11.70
2018-02-04T21:20:11.173Z,10.80
2018-02-04T21:22:38.707Z,11.97
2018-02-04T21:25:06.176Z,10.65
2018-02-04T21:27:33.722Z,11.70
2018-02-04T21:30:04.488Z,11.03
2018-02-04T21:32:37.527Z,10.25
2018-02-04T21:35:05.763Z,10.90
2018-02-04T21:37:34.040Z,10.47
2018-02-04T21:40:02.600Z,10.00
2018-02-04T21:42:33.236Z,10.25
2018-02-04T21:45:01.581Z,10.32
2018-02-04T21:47:29.085Z,9.33
2018-02-04T21:49:56.528Z,11.53
2018-02-04T21:52:24.374Z,12.00
2018-02-04T21:54:51.863Z,11.32
2018-02-04T21:57:19.870Z,12.63
2018-02-04T21:59:47.465Z,11.90
2018-02-04T22:02:14.920Z,11.87
2018-02-04T22:04:42.393Z,11.60
2018-02-04T22:07:09.917Z,11.77
2018-02-04T22:09:38.124Z,12.17
2018-02-04T22:12:12.914Z,12.40
2018-02-04T22:14:40.355Z,11.30
2018-02-04T22:17:07.836Z,14.52
2018-02-04T22:19:35.370Z,10.90
2018-02-04T22:22:02.876Z,13.27
2018-02-04T22:24:30.345Z,12.23
2018-02-04T22:27:03.174Z,13.80
2018-02-04T22:29:30.636Z,13.40
2018-02-04T22:31:58.154Z,12.87
2018-02-04T22:34:25.687Z,11.93
2018-02-04T22:36:54.441Z,12.43
2018-02-04T22:39:21.896Z,11.53
2018-02-04T22:41:49.365Z,12.10
2018-02-04T22:44:16.828Z,11.93
2018-02-04T22:46:44.297Z,11.30
2018-02-04T22:49:12.691Z,12.02
2018-02-04T22:51:40.160Z,11.73
2018-02-04T22:54:07.599Z,13.67
2018-02-04T22:56:35.142Z,12.80
2018-02-04T22:59:02.592Z,12.57
2018-02-04T23:01:30.049Z,11.87
2018-02-04T23:03:57.524Z,11.23
2018-02-04T23:06:25.096Z,13.52
2018-02-04T23:08:52.677Z,13.00
2018-02-04T23:11:21.853Z,11.85
2018-02-04T23:13:52.797Z,12.50
2018-02-04T23:16:20.243Z,12.07
2018-02-04T23:18:47.718Z,12.13
2018-02-04T23:21:15.213Z,11.98
2018-02-04T23:23:42.657Z,12.07
2018-02-04T23:26:10.723Z,13.50
2018-02-04T23:28:38.177Z,12.10
2018-02-04T23:31:05.644Z,13.03
2018-02-04T23:33:33.099Z,13.60
2018-02-04T23:36:00.572Z,12.67
2018-02-04T23:38:28.028Z,12.90
2018-02-04T23:40:55.518Z,13.57
2018-02-04T23:43:26.283Z,11.13
2018-02-04T23:45:53.728Z,12.98
2018-02-04T23:48:21.211Z,11.70
2018-02-04T23:50:49.269Z,13.68
2018-02-04T23:53:16.752Z,14.50
2018-02-04T23:55:44.224Z,12.60
2018-02-04T23:58:11.867Z,11.68
